createdAt,value
2023-05-15T00:00:35.707Z,1203.00
2023-05-15T00:01:35.704Z,1197.00
2023-05-15T00:02:35.834Z,1203.00
2023-05-15T00:03:35.841Z,1202.00
2023-05-15T00:04:35.815Z,1207.00
2023-05-15T00:05:35.781Z,1202.00
2023-05-15T00:06:35.841Z,1193.00
2023-05-15T00:07:35.848Z,1202.00
2023-05-15T00:08:35.923Z,1187.00
2023-05-15T00:09:35.895Z,1212.00
2023-05-15T00:10:35.974Z,1199.00
2023-05-15T00:11:35.968Z,1201.00
2023-05-15T00:12:36.003Z,1189.00
2023-05-15T00:13:36.014Z,1201.00
2023-05-15T00:14:36.050Z,1203.00
2023-05-15T00:15:36.101Z,1200.00
2023-05-15T00:16:36.238Z,1204.00
2023-05-15T00:17:36.222Z,1214.00
2023-05-15T00:18:36.183Z,1211.00
2023-05-15T00:19:36.178Z,1204.00
2023-05-15T00:20:36.226Z,1208.00
2023-05-15T00:21:36.242Z,1194.00
2023-05-15T00:22:36.266Z,1191.00
2023-05-15T00:23:36.281Z,1195.00
2023-05-15T00:24:36.293Z,1216.00
2023-05-15T00:25:36.339Z,1202.00
2023-05-15T00:26:36.354Z,1195.00
2023-05-15T00:27:36.393Z,1220.00
2023-05-15T00:28:36.384Z,1205.00
2023-05-15T00:29:36.445Z,1205.00
2023-05-15T00:30:36.439Z,1213.00
2023-05-15T00:31:36.474Z,1208.00
2023-05-15T00:32:36.540Z,1198.00
2023-05-15T00:33:36.528Z,1211.00
2023-05-15T00:34:36.567Z,1200.00
2023-05-15T00:35:36.575Z,1200.00
2023-05-15T00:36:36.621Z,1204.00
2023-05-15T00:37:36.628Z,1191.00
2023-05-15T00:38:36.662Z,1199.00
2023-05-15T00:39:36.707Z,1207.00
2023-05-15T00:40:36.722Z,1210.00
2023-05-15T00:41:36.718Z,1205.00
2023-05-15T00:42:36.825Z,1208.00
2023-05-15T00:43:36.778Z,1200.00
2023-05-15T00:44:36.858Z,1212.00
2023-05-15T00:45:36.857Z,1195.00
2023-05-15T00:46:36.940Z,1198.00
2023-05-15T00:47:36.998Z,1205.00
2023-05-15T00:48:36.989Z,1208.00
2023-05-15T00:49:36.990Z,1212.00
2023-05-15T00:50:37.029Z,1206.00
2023-05-15T00:51:37.061Z,1196.00
2023-05-15T00:52:37.148Z,1198.00
2023-05-15T00:53:37.130Z,1211.00
2023-05-15T00:54:37.120Z,1208.00
2023-05-15T00:55:37.179Z,1197.00
2023-05-15T00:56:37.171Z,1201.00
2023-05-15T00:57:37.208Z,1204.00
2023-05-15T00:58:37.209Z,1195.00
2023-05-15T00:59:37.259Z,1200.00
2023-05-15T01:00:37.283Z,1199.00
2023-05-15T01:01:37.314Z,1201.00
2023-05-15T01:02:37.333Z,1199.00
2023-05-15T01:03:37.374Z,1194.00
2023-05-15T01:04:38.245Z,1198.00
2023-05-15T01:05:37.388Z,1198.00
2023-05-15T01:06:37.443Z,1203.00
2023-05-15T01:07:37.461Z,1189.00
2023-05-15T01:08:37.460Z,1212.00
2023-05-15T01:09:37.485Z,1199.00
2023-05-15T01:10:37.681Z,1197.00
2023-05-15T01:11:37.598Z,1209.00
2023-05-15T01:12:37.592Z,1192.00
2023-05-15T01:13:37.620Z,1217.00
2023-05-15T01:14:37.666Z,1189.00
2023-05-15T01:15:37.673Z,1194.00
2023-05-15T01:16:37.695Z,1197.00
2023-05-15T01:17:37.780Z,1203.00
2023-05-15T01:18:37.882Z,1217.00
2023-05-15T01:19:37.895Z,1214.00
2023-05-15T01:20:37.815Z,1207.00
2023-05-15T01:21:37.843Z,1211.00
2023-05-15T01:22:37.885Z,1219.00
2023-05-15T01:23:37.924Z,1209.00
2023-05-15T01:24:38.054Z,1216.00
2023-05-15T01:25:38.009Z,1202.00
2023-05-15T01:26:38.758Z,1189.00
2023-05-15T01:27:38.029Z,1198.00
2023-05-15T01:28:38.076Z,1202.00
2023-05-15T01:29:38.113Z,1208.00
2023-05-15T01:30:38.138Z,1204.00
2023-05-15T01:31:38.224Z,1204.00
2023-05-15T01:32:38.248Z,1199.00
2023-05-15T01:33:38.242Z,1195.00
2023-05-15T01:34:38.305Z,1209.00
2023-05-15T01:35:38.279Z,1209.00
2023-05-15T01:36:38.321Z,1202.00
2023-05-15T01:37:38.324Z,1200.00
2023-05-15T01:38:38.393Z,1226.00
2023-05-15T01:39:38.402Z,1209.00
2023-05-15T01:40:38.445Z,1194.00
2023-05-15T01:41:38.465Z,1184.00
2023-05-15T01:42:38.516Z,1207.00
2023-05-15T01:43:38.512Z,1208.00
2023-05-15T01:44:38.534Z,1196.00
2023-05-15T01:45:38.597Z,1202.00
2023-05-15T01:46:38.673Z,1189.00
2023-05-15T01:47:38.694Z,1210.00
2023-05-15T01:48:38.647Z,1198.00
2023-05-15T01:49:38.714Z,1197.00
2023-05-15T01:50:38.729Z,1200.00
2023-05-15T01:51:38.727Z,1195.00
2023-05-15T01:52:38.781Z,1195.00
2023-05-15T01:53:38.812Z,1204.00
2023-05-15T01:54:38.843Z,1203.00
2023-05-15T01:55:38.849Z,1200.00
2023-05-15T01:56:38.911Z,1197.00
2023-05-15T01:57:38.940Z,1207.00
2023-05-15T01:58:38.946Z,1191.00
2023-05-15T01:59:39.000Z,1199.00
2023-05-15T02:00:39.034Z,1194.00
2023-05-15T02:01:39.104Z,1222.00
2023-05-15T02:02:39.119Z,1212.00
2023-05-15T02:03:39.168Z,1196.00
2023-05-15T02:04:39.161Z,1193.00
2023-05-15T02:05:39.235Z,1193.00
2023-05-15T02:06:39.198Z,1201.00
2023-05-15T02:07:39.253Z,1206.00
2023-05-15T02:08:39.299Z,1197.00
2023-05-15T02:09:39.341Z,1209.00
2023-05-15T02:10:39.357Z,1192.00
2023-05-15T02:11:39.442Z,1201.00
2023-05-15T02:12:39.453Z,1206.00
2023-05-15T02:13:39.555Z,1201.00
2023-05-15T02:14:39.536Z,1200.00
2023-05-15T02:15:39.566Z,1186.00
2023-05-15T02:16:39.663Z,1200.00
2023-05-15T02:17:39.677Z,1207.00
2023-05-15T02:18:39.680Z,1211.00
2023-05-15T02:19:39.710Z,1201.00
2023-05-15T02:20:39.739Z,1204.00
2023-05-15T02:21:39.746Z,1208.00
2023-05-15T02:22:39.835Z,1208.00
2023-05-15T02:23:39.830Z,1206.00
2023-05-15T02:24:39.870Z,1211.00
2023-05-15T02:25:39.900Z,1202.00
2023-05-15T02:26:39.910Z,1209.00
2023-05-15T02:27:39.999Z,1196.00
2023-05-15T02:28:40.010Z,1196.00
2023-05-15T02:29:40.022Z,1197.00
2023-05-15T02:30:40.096Z,1187.00
2023-05-15T02:31:40.171Z,1204.00
2023-05-15T02:32:40.199Z,1202.00
2023-05-15T02:33:40.203Z,1212.00
2023-05-15T02:34:40.233Z,1200.00
2023-05-15T02:35:40.282Z,1209.00
2023-05-15T02:36:40.326Z,1205.00
2023-05-15T02:37:40.385Z,1200.00
2023-05-15T02:38:40.372Z,1217.00
2023-05-15T02:39:40.450Z,1222.00
2023-05-15T02:40:40.478Z,1200.00
2023-05-15T02:41:40.492Z,1195.00
2023-05-15T02:42:40.530Z,1209.00
2023-05-15T02:43:40.574Z,1196.00
2023-05-15T02:44:40.677Z,1209.00
2023-05-15T02:45:40.695Z,1203.00
2023-05-15T02:46:40.700Z,1200.00
2023-05-15T02:47:40.752Z,1209.00
2023-05-15T02:48:40.750Z,1201.00
2023-05-15T02:49:40.805Z,1200.00
2023-05-15T02:50:40.792Z,1211.00
2023-05-15T02:51:40.855Z,1186.00
2023-05-15T02:52:40.869Z,1201.00
2023-05-15T02:53:40.956Z,1195.00
2023-05-15T02:54:40.962Z,1208.00
2023-05-15T02:55:41.033Z,1215.00
2023-05-15T02:56:41.040Z,1201.00
2023-05-15T02:57:41.106Z,1198.00
2023-05-15T02:58:41.153Z,1203.00
2023-05-15T02:59:41.138Z,1205.00
2023-05-15T03:00:41.240Z,1204.00
2023-05-15T03:01:41.253Z,1203.00
2023-05-15T03:02:41.284Z,1194.00
2023-05-15T03:03:41.326Z,1198.00
2023-05-15T03:04:41.429Z,1187.00
2023-05-15T03:05:41.401Z,1204.00
2023-05-15T03:06:41.445Z,1200.00
2023-05-15T03:07:41.472Z,1202.00
2023-05-15T03:08:41.521Z,1205.00
2023-05-15T03:09:41.526Z,1193.00
2023-05-15T03:10:41.611Z,1206.00
2023-05-15T03:11:41.610Z,1206.00
2023-05-15T03:12:41.646Z,1201.00
2023-05-15T03:13:41.697Z,1206.00
2023-05-15T03:14:41.704Z,1203.00
2023-05-15T03:15:41.769Z,1206.00
2023-05-15T03:16:41.877Z,1203.00
2023-05-15T03:17:41.880Z,1206.00
2023-05-15T03:18:41.908Z,1206.00
2023-05-15T03:19:41.921Z,1195.00
2023-05-15T03:20:41.921Z,1204.00
2023-05-15T03:21:41.959Z,1213.00
2023-05-15T03:22:42.005Z,1199.00
2023-05-15T03:23:42.077Z,1212.00
2023-05-15T03:24:42.143Z,1197.00
2023-05-15T03:25:42.168Z,1204.00
2023-05-15T03:26:42.193Z,1204.00
2023-05-15T03:27:42.220Z,1204.00
2023-05-15T03:28:42.506Z,1216.00
2023-05-15T03:29:42.313Z,1194.00
2023-05-15T03:30:42.316Z,1207.00
2023-05-15T03:31:42.389Z,1202.00
2023-05-15T03:32:42.474Z,1203.00
2023-05-15T03:33:42.474Z,1210.00
2023-05-15T03:34:42.492Z,1214.00
2023-05-15T03:35:42.571Z,1192.00
2023-05-15T03:36:42.617Z,1202.00
2023-05-15T03:37:42.636Z,1200.00
2023-05-15T03:38:42.681Z,1209.00
2023-05-15T03:39:42.719Z,1192.00
2023-05-15T03:40:42.757Z,1198.00
2023-05-15T03:41:42.801Z,1206.00
2023-05-15T03:42:42.919Z,1203.00
2023-05-15T03:43:42.878Z,1224.00
2023-05-15T03:44:42.933Z,1217.00
2023-05-15T03:45:42.993Z,1213.00
2023-05-15T03:46:43.036Z,1203.00
2023-05-15T03:47:43.150Z,1196.00
2023-05-15T03:48:43.086Z,1204.00
2023-05-15T03:49:43.101Z,1196.00
2023-05-15T03:50:43.176Z,1198.00
2023-05-15T03:51:43.180Z,1207.00
2023-05-15T03:52:43.302Z,1204.00
2023-05-15T03:53:43.297Z,1201.00
2023-05-15T03:54:43.338Z,1201.00
2023-05-15T03:55:43.333Z,1201.00
2023-05-15T03:56:43.386Z,1207.00
2023-05-15T03:57:43.445Z,1206.00
2023-05-15T03:58:43.512Z,1197.00
2023-05-15T03:59:43.537Z,1217.00
2023-05-15T04:00:43.589Z,1209.00
2023-05-15T04:01:59.334Z,1212.00
2023-05-15T04:02:44.658Z,1213.00
2023-05-15T04:03:43.694Z,1213.00
2023-05-15T04:04:43.623Z,1209.00
2023-05-15T04:05:43.782Z,1188.00
2023-05-15T04:06:43.579Z,1165.00
2023-05-15T04:07:43.579Z,1143.00
2023-05-15T04:08:43.584Z,1115.00
2023-05-15T04:09:43.539Z,1087.00
2023-05-15T04:10:43.540Z,1085.00
2023-05-15T04:11:43.542Z,1043.00
2023-05-15T04:12:43.566Z,1038.00
2023-05-15T04:13:43.612Z,1028.00
2023-05-15T04:14:43.516Z,1002.00
2023-05-15T04:15:43.585Z,980.00
2023-05-15T04:16:43.675Z,944.00
2023-05-15T04:17:43.687Z,928.00
2023-05-15T04:18:43.801Z,911.00
2023-05-15T04:19:43.775Z,879.00
2023-05-15T04:20:43.835Z,866.00
2023-05-15T04:21:44.819Z,857.00
2023-05-15T04:22:43.984Z,844.00
2023-05-15T04:23:43.985Z,824.00
2023-05-15T04:24:44.055Z,784.00
2023-05-15T04:25:44.102Z,787.00
2023-05-15T04:26:44.185Z,768.00
2023-05-15T04:27:44.252Z,761.00
2023-05-15T04:28:52.358Z,732.00
2023-05-15T04:29:45.284Z,733.00
2023-05-15T04:30:44.294Z,729.00
2023-05-15T04:31:44.298Z,707.00
2023-05-15T04:32:44.252Z,692.00
2023-05-15T04:33:44.237Z,710.00
2023-05-15T04:34:44.222Z,683.00
2023-05-15T04:35:44.253Z,695.00
2023-05-15T04:36:44.218Z,701.00
2023-05-15T04:37:44.214Z,694.00
2023-05-15T04:38:44.232Z,698.00
2023-05-15T04:39:44.280Z,698.00
2023-05-15T04:40:44.330Z,701.00
2023-05-15T04:41:44.389Z,694.00
2023-05-15T04:42:44.525Z,689.00
2023-05-15T04:43:44.550Z,679.00
2023-05-15T04:44:44.567Z,694.00
2023-05-15T04:45:44.689Z,700.00
2023-05-15T04:46:44.661Z,695.00
2023-05-15T04:47:44.758Z,692.00
2023-05-15T04:48:44.780Z,690.00
2023-05-15T04:49:44.824Z,697.00
2023-05-15T04:50:44.865Z,685.00
2023-05-15T04:51:44.909Z,703.00
2023-05-15T04:52:44.950Z,714.00
2023-05-15T04:53:45.037Z,706.00
2023-05-15T04:54:45.063Z,710.00
2023-05-15T04:55:45.130Z,708.00
2023-05-15T04:56:45.148Z,712.00
2023-05-15T04:57:45.222Z,706.00
2023-05-15T04:58:45.270Z,706.00
2023-05-15T04:59:45.290Z,710.00
2023-05-15T05:00:45.341Z,720.00
2023-05-15T05:01:45.424Z,701.00
2023-05-15T05:02:45.528Z,707.00
2023-05-15T05:03:45.500Z,711.00
2023-05-15T05:04:45.540Z,726.00
2023-05-15T05:05:45.564Z,714.00
2023-05-15T05:06:45.588Z,717.00
2023-05-15T05:07:45.668Z,711.00
2023-05-15T05:08:45.736Z,721.00
2023-05-15T05:09:45.759Z,714.00
2023-05-15T05:10:45.802Z,713.00
2023-05-15T05:11:45.843Z,705.00
2023-05-15T05:12:45.891Z,692.00
2023-05-15T05:13:45.933Z,706.00
2023-05-15T05:14:45.956Z,694.00
2023-05-15T05:15:46.093Z,696.00
2023-05-15T05:16:46.052Z,697.00
2023-05-15T05:17:46.103Z,708.00
2023-05-15T05:18:46.149Z,686.00
2023-05-15T05:19:46.320Z,692.00
2023-05-15T05:20:46.209Z,693.00
2023-05-15T05:21:46.312Z,713.00
2023-05-15T05:22:46.361Z,685.00
2023-05-15T05:23:46.365Z,689.00
2023-05-15T05:24:46.447Z,665.00
2023-05-15T05:25:46.564Z,664.00
2023-05-15T05:26:46.549Z,662.00
2023-05-15T05:27:46.626Z,659.00
2023-05-15T05:28:46.962Z,658.00
2023-05-15T05:29:46.651Z,646.00
2023-05-15T05:30:46.792Z,645.00
2023-05-15T05:31:46.894Z,644.00
2023-05-15T05:32:46.831Z,646.00
2023-05-15T05:33:46.842Z,640.00
2023-05-15T05:34:46.892Z,644.00
2023-05-15T05:35:47.601Z,644.00
2023-05-15T05:36:47.035Z,654.00
2023-05-15T05:37:47.025Z,658.00
2023-05-15T05:38:47.145Z,648.00
2023-05-15T05:39:47.140Z,641.00
2023-05-15T05:40:47.538Z,636.00
2023-05-15T05:41:47.261Z,639.00
2023-05-15T05:42:47.315Z,640.00
2023-05-15T05:43:48.102Z,630.00
2023-05-15T05:44:47.422Z,641.00
2023-05-15T05:45:47.569Z,652.00
2023-05-15T05:46:47.628Z,662.00
2023-05-15T05:47:47.737Z,665.00
2023-05-15T05:48:47.672Z,703.00
2023-05-15T05:49:47.786Z,726.00
2023-05-15T05:50:47.919Z,761.00
2023-05-15T05:51:47.941Z,772.00
2023-05-15T05:52:47.927Z,778.00
2023-05-15T05:53:47.982Z,803.00
2023-05-15T05:54:48.128Z,820.00
2023-05-15T05:55:48.035Z,824.00
2023-05-15T05:56:48.399Z,823.00
2023-05-15T05:57:48.096Z,841.00
2023-05-15T05:58:48.256Z,857.00
2023-05-15T05:59:48.225Z,853.00
2023-05-15T06:00:48.272Z,880.00
2023-05-15T06:01:48.414Z,872.00
2023-05-15T06:02:48.352Z,895.00
2023-05-15T06:03:48.459Z,897.00
2023-05-15T06:04:48.391Z,919.00
2023-05-15T06:05:48.398Z,921.00
2023-05-15T06:06:48.874Z,937.00
2023-05-15T06:07:48.454Z,947.00
2023-05-15T06:08:49.413Z,954.00
2023-05-15T06:09:48.548Z,959.00
2023-05-15T06:10:55.399Z,965.00
2023-05-15T06:11:48.561Z,967.00
2023-05-15T06:12:48.615Z,971.00
2023-05-15T06:13:48.477Z,980.00
2023-05-15T06:14:48.691Z,1000.00
2023-05-15T06:15:48.450Z,1010.00
2023-05-15T06:16:49.064Z,1000.00
2023-05-15T06:17:48.546Z,1000.00
2023-05-15T06:18:48.644Z,990.00
2023-05-15T06:19:48.425Z,1018.00
2023-05-15T06:20:48.482Z,1018.00
2023-05-15T06:21:48.907Z,1032.00
2023-05-15T06:22:48.936Z,1044.00
2023-05-15T06:23:48.598Z,1060.00
2023-05-15T06:24:48.880Z,1056.00
2023-05-15T06:25:49.185Z,1053.00
2023-05-15T06:26:49.305Z,1050.00
2023-05-15T06:27:48.362Z,1069.00
2023-05-15T06:28:48.354Z,1063.00
2023-05-15T06:29:48.394Z,1040.00
2023-05-15T06:30:48.440Z,1041.00
2023-05-15T06:31:50.041Z,1006.00
2023-05-15T06:32:48.435Z,977.00
2023-05-15T06:33:48.438Z,972.00
2023-05-15T06:34:48.526Z,977.00
2023-05-15T06:35:48.311Z,957.00
2023-05-15T06:36:48.354Z,952.00
2023-05-15T06:37:48.662Z,937.00
2023-05-15T06:38:48.405Z,936.00
2023-05-15T06:39:48.488Z,911.00
2023-05-15T06:40:48.323Z,938.00
2023-05-15T06:41:48.280Z,951.00
2023-05-15T06:42:48.246Z,943.00
2023-05-15T06:43:48.393Z,965.00
2023-05-15T06:44:48.256Z,977.00
2023-05-15T06:45:48.267Z,993.00
2023-05-15T06:46:48.283Z,991.00
2023-05-15T06:47:48.255Z,988.00
2023-05-15T06:48:48.394Z,1002.00
2023-05-15T06:49:48.216Z,984.00
2023-05-15T06:50:48.553Z,993.00
2023-05-15T06:51:48.182Z,991.00
2023-05-15T06:52:48.223Z,1015.00
2023-05-15T06:53:48.254Z,1021.00
2023-05-15T06:54:48.549Z,1011.00
2023-05-15T06:55:48.368Z,1007.00
2023-05-15T06:56:48.301Z,953.00
2023-05-15T06:57:48.293Z,972.00
2023-05-15T06:58:48.416Z,961.00
2023-05-15T06:59:48.436Z,982.00
2023-05-15T07:00:48.351Z,982.00
2023-05-15T07:01:48.424Z,966.00
2023-05-15T07:02:48.476Z,985.00
2023-05-15T07:03:48.205Z,992.00
2023-05-15T07:04:48.489Z,1005.00
2023-05-15T07:05:48.302Z,1012.00
2023-05-15T07:06:48.321Z,1013.00
2023-05-15T07:07:48.425Z,1000.00
2023-05-15T07:08:48.374Z,966.00
2023-05-15T07:09:48.483Z,985.00
2023-05-15T07:10:48.504Z,991.00
2023-05-15T07:11:48.565Z,1008.00
2023-05-15T07:12:48.903Z,1022.00
2023-05-15T07:13:48.975Z,975.00
2023-05-15T07:14:48.603Z,979.00
2023-05-15T07:15:48.595Z,992.00
2023-05-15T07:16:48.747Z,999.00
2023-05-15T07:17:49.105Z,981.00
2023-05-15T07:18:48.764Z,1017.00
2023-05-15T07:19:48.782Z,997.00
2023-05-15T07:20:48.862Z,987.00
2023-05-15T07:21:48.899Z,1007.00
2023-05-15T07:22:56.210Z,938.00
2023-05-15T07:23:49.961Z,940.00
2023-05-15T07:24:48.954Z,944.00
2023-05-15T07:25:48.943Z,947.00
2023-05-15T07:26:58.271Z,938.00
2023-05-15T07:27:49.911Z,941.00
2023-05-15T07:28:48.921Z,945.00
2023-05-15T07:29:48.938Z,957.00
2023-05-15T07:30:48.885Z,973.00
2023-05-15T07:31:48.906Z,938.00
2023-05-15T07:32:49.062Z,944.00
2023-05-15T07:33:48.938Z,888.00
2023-05-15T07:34:48.846Z,890.00
2023-05-15T07:35:48.814Z,741.00
2023-05-15T07:36:48.875Z,678.00
2023-05-15T07:37:48.870Z,723.00
2023-05-15T07:38:48.952Z,718.00
2023-05-15T07:39:49.421Z,690.00
2023-05-15T07:40:48.882Z,678.00
2023-05-15T07:41:48.967Z,738.00
2023-05-15T07:42:48.912Z,791.00
2023-05-15T07:43:49.522Z,813.00
2023-05-15T07:44:49.753Z,819.00
2023-05-15T07:45:49.197Z,833.00
2023-05-15T07:46:49.215Z,832.00
2023-05-15T07:47:49.281Z,841.00
2023-05-15T07:48:49.426Z,827.00
2023-05-15T07:49:49.316Z,827.00
2023-05-15T07:50:49.361Z,819.00
2023-05-15T07:51:49.437Z,833.00
2023-05-15T07:52:49.489Z,822.00
2023-05-15T07:53:49.480Z,843.00
2023-05-15T07:54:49.539Z,851.00
2023-05-15T07:55:49.584Z,830.00
2023-05-15T07:56:49.625Z,858.00
2023-05-15T07:57:53.336Z,856.00
2023-05-15T07:58:49.665Z,857.00
2023-05-15T07:59:49.718Z,826.00
2023-05-15T08:00:49.853Z,849.00
2023-05-15T08:01:49.642Z,847.00
2023-05-15T08:02:49.754Z,852.00
2023-05-15T08:03:49.720Z,863.00
2023-05-15T08:04:49.614Z,835.00
2023-05-15T08:05:49.585Z,859.00
2023-05-15T08:06:49.632Z,896.00
2023-05-15T08:07:49.582Z,877.00
2023-05-15T08:08:49.616Z,872.00
2023-05-15T08:09:49.604Z,874.00
2023-05-15T08:10:49.557Z,893.00
2023-05-15T08:11:49.820Z,896.00
2023-05-15T08:12:49.554Z,886.00
2023-05-15T08:13:49.627Z,885.00
2023-05-15T08:14:49.569Z,888.00
2023-05-15T08:15:49.573Z,889.00
2023-05-15T08:16:49.529Z,876.00
2023-05-15T08:17:49.586Z,881.00
2023-05-15T08:18:49.580Z,896.00
2023-05-15T08:19:49.657Z,871.00
2023-05-15T08:20:49.520Z,845.00
2023-05-15T08:21:49.524Z,851.00
2023-05-15T08:22:49.445Z,849.00
2023-05-15T08:23:49.468Z,842.00
2023-05-15T08:24:49.488Z,865.00
2023-05-15T08:25:49.464Z,879.00
2023-05-15T08:26:49.515Z,830.00
2023-05-15T08:27:49.565Z,814.00
2023-05-15T08:28:49.579Z,804.00
2023-05-15T08:29:49.511Z,819.00
2023-05-15T08:30:49.494Z,813.00
2023-05-15T08:31:49.522Z,839.00
2023-05-15T08:32:49.443Z,842.00
2023-05-15T08:33:49.439Z,826.00
2023-05-15T08:34:49.428Z,812.00
2023-05-15T08:35:49.398Z,778.00
2023-05-15T08:36:49.469Z,723.00
2023-05-15T08:37:49.369Z,699.00
2023-05-15T08:38:49.386Z,645.00
2023-05-15T08:39:49.333Z,615.00
2023-05-15T08:40:49.358Z,621.00
2023-05-15T08:41:49.357Z,596.00
2023-05-15T08:42:49.387Z,627.00
2023-05-15T08:43:49.386Z,616.00
2023-05-15T08:44:49.322Z,578.00
2023-05-15T08:45:49.493Z,610.00
2023-05-15T08:46:49.507Z,637.00
2023-05-15T08:47:49.594Z,659.00
2023-05-15T08:48:49.619Z,661.00
2023-05-15T08:49:49.514Z,686.00
2023-05-15T08:50:49.547Z,660.00
2023-05-15T08:51:49.557Z,688.00
2023-05-15T08:52:49.681Z,740.00
2023-05-15T08:53:49.587Z,768.00
2023-05-15T08:54:49.640Z,774.00
2023-05-15T08:55:49.656Z,790.00
2023-05-15T08:56:49.707Z,773.00
2023-05-15T08:57:49.706Z,789.00
2023-05-15T08:58:49.702Z,826.00
2023-05-15T08:59:49.763Z,802.00
2023-05-15T09:00:49.740Z,833.00
2023-05-15T09:01:50.095Z,834.00
2023-05-15T09:02:49.814Z,846.00
2023-05-15T09:03:49.800Z,825.00
2023-05-15T09:04:49.766Z,866.00
2023-05-15T09:05:49.782Z,882.00
2023-05-15T09:06:49.765Z,888.00
2023-05-15T09:07:49.759Z,908.00
2023-05-15T09:08:49.877Z,885.00
2023-05-15T09:09:49.846Z,915.00
2023-05-15T09:10:49.785Z,940.00
2023-05-15T09:11:49.785Z,944.00
2023-05-15T09:12:49.808Z,947.00
2023-05-15T09:13:49.766Z,940.00
2023-05-15T09:14:49.787Z,954.00
2023-05-15T09:15:49.818Z,952.00
2023-05-15T09:16:49.830Z,971.00
2023-05-15T09:17:49.827Z,969.00
2023-05-15T09:18:49.841Z,989.00
2023-05-15T09:19:49.861Z,993.00
2023-05-15T09:20:49.753Z,1002.00
2023-05-15T09:21:49.787Z,989.00
2023-05-15T09:22:49.811Z,986.00
2023-05-15T09:23:49.789Z,1002.00
2023-05-15T09:24:49.855Z,1003.00
2023-05-15T09:25:49.859Z,1001.00
2023-05-15T09:26:49.853Z,1002.00
2023-05-15T09:27:49.881Z,993.00
2023-05-15T09:28:49.892Z,952.00
2023-05-15T09:29:49.839Z,956.00
2023-05-15T09:30:49.947Z,680.00
2023-05-15T09:31:50.011Z,606.00
2023-05-15T09:32:50.152Z,590.00
2023-05-15T09:33:50.029Z,537.00
2023-05-15T09:34:50.065Z,508.00
2023-05-15T09:35:50.027Z,496.00
2023-05-15T09:36:50.026Z,485.00
2023-05-15T09:37:50.044Z,498.00
2023-05-15T09:38:50.077Z,524.00
2023-05-15T09:39:50.123Z,557.00
2023-05-15T09:40:50.164Z,563.00
2023-05-15T09:41:50.216Z,567.00
2023-05-15T09:42:50.252Z,561.00
2023-05-15T09:43:50.450Z,607.00
2023-05-15T09:44:50.332Z,657.00
2023-05-15T09:45:50.400Z,655.00
2023-05-15T09:46:50.436Z,675.00
2023-05-15T09:47:50.369Z,661.00
2023-05-15T09:48:50.355Z,656.00
2023-05-15T09:49:50.318Z,680.00
2023-05-15T09:50:50.338Z,694.00
2023-05-15T09:51:50.326Z,707.00
2023-05-15T09:52:50.309Z,723.00
2023-05-15T09:53:50.317Z,727.00
2023-05-15T09:54:50.675Z,690.00
2023-05-15T09:55:50.360Z,706.00
2023-05-15T09:56:50.423Z,656.00
2023-05-15T09:57:50.530Z,654.00
2023-05-15T09:58:50.481Z,691.00
2023-05-15T09:59:50.534Z,725.00
2023-05-15T10:00:50.620Z,778.00
2023-05-15T10:01:50.680Z,827.00
2023-05-15T10:02:50.737Z,779.00
2023-05-15T10:03:50.760Z,763.00
2023-05-15T10:04:50.845Z,732.00
2023-05-15T10:05:50.972Z,788.00
2023-05-15T10:06:50.950Z,810.00
2023-05-15T10:07:50.995Z,797.00
2023-05-15T10:08:51.096Z,830.00
2023-05-15T10:09:51.118Z,740.00
2023-05-15T10:10:51.131Z,819.00
2023-05-15T10:11:51.249Z,855.00
2023-05-15T10:12:51.281Z,788.00
2023-05-15T10:13:51.339Z,802.00
2023-05-15T10:14:51.407Z,837.00
2023-05-15T10:15:51.562Z,752.00
2023-05-15T10:16:51.480Z,773.00
2023-05-15T10:17:51.590Z,813.00
2023-05-15T10:18:51.626Z,814.00
2023-05-15T10:20:51.589Z,819.00
2023-05-15T10:21:51.595Z,820.00
2023-05-15T10:22:51.575Z,842.00
2023-05-15T10:23:51.576Z,866.00
2023-05-15T10:24:51.582Z,897.00
2023-05-15T10:25:51.539Z,812.00
2023-05-15T10:26:51.526Z,794.00
2023-05-15T10:27:51.546Z,858.00
2023-05-15T10:28:51.561Z,863.00
2023-05-15T10:29:51.528Z,935.00
2023-05-15T10:30:51.482Z,935.00
2023-05-15T10:31:51.546Z,927.00
2023-05-15T10:32:51.550Z,939.00
2023-05-15T10:33:51.489Z,921.00
2023-05-15T10:34:51.473Z,911.00
2023-05-15T10:35:51.500Z,848.00
2023-05-15T10:36:51.449Z,831.00
2023-05-15T10:37:51.483Z,824.00
2023-05-15T10:38:51.503Z,826.00
2023-05-15T10:39:51.537Z,820.00
2023-05-15T10:40:51.599Z,819.00
2023-05-15T10:41:51.587Z,839.00
2023-05-15T10:42:51.666Z,753.00
2023-05-15T10:43:51.667Z,745.00
2023-05-15T10:44:51.714Z,769.00
2023-05-15T10:45:51.733Z,804.00
2023-05-15T10:46:51.769Z,775.00
2023-05-15T10:47:51.866Z,821.00
2023-05-15T10:48:51.852Z,788.00
2023-05-15T10:49:51.847Z,744.00
2023-05-15T10:50:51.883Z,688.00
2023-05-15T10:51:51.929Z,666.00
2023-05-15T10:52:51.934Z,639.00
2023-05-15T10:53:51.992Z,649.00
2023-05-15T10:54:52.016Z,650.00
2023-05-15T10:55:52.180Z,662.00
2023-05-15T10:56:52.503Z,661.00
2023-05-15T10:57:52.140Z,651.00
2023-05-15T10:58:52.156Z,644.00
2023-05-15T10:59:52.234Z,650.00
2023-05-15T11:00:52.250Z,641.00
2023-05-15T11:01:52.291Z,646.00
2023-05-15T11:02:52.344Z,640.00
2023-05-15T11:03:53.910Z,626.00
2023-05-15T11:04:52.351Z,629.00
2023-05-15T11:05:52.377Z,644.00
2023-05-15T11:06:52.381Z,640.00
2023-05-15T11:07:52.347Z,660.00
2023-05-15T11:08:52.340Z,651.00
2023-05-15T11:09:52.297Z,689.00
2023-05-15T11:10:52.299Z,725.00
2023-05-15T11:11:52.352Z,793.00
2023-05-15T11:12:52.298Z,807.00
2023-05-15T11:13:52.288Z,838.00
2023-05-15T11:14:52.297Z,857.00
2023-05-15T11:15:52.302Z,821.00
2023-05-15T11:16:52.344Z,858.00
2023-05-15T11:17:52.369Z,849.00
2023-05-15T11:18:52.391Z,849.00
2023-05-15T11:19:52.291Z,893.00
2023-05-15T11:20:52.237Z,887.00
2023-05-15T11:21:52.283Z,902.00
2023-05-15T11:22:52.212Z,904.00
2023-05-15T11:23:52.216Z,916.00
2023-05-15T11:24:52.231Z,911.00
2023-05-15T11:25:52.198Z,918.00
2023-05-15T11:26:52.191Z,915.00
2023-05-15T11:27:52.214Z,908.00
2023-05-15T11:28:52.191Z,905.00
2023-05-15T11:29:52.182Z,922.00
2023-05-15T11:30:52.233Z,914.00
2023-05-15T11:31:52.160Z,937.00
2023-05-15T11:32:52.253Z,936.00
2023-05-15T11:33:52.495Z,928.00
2023-05-15T11:34:52.178Z,941.00
2023-05-15T11:35:52.174Z,932.00
2023-05-15T11:36:52.138Z,930.00
2023-05-15T11:37:52.136Z,935.00
2023-05-15T11:38:52.180Z,943.00
2023-05-15T11:39:52.120Z,936.00
2023-05-15T11:40:52.094Z,950.00
2023-05-15T11:41:52.115Z,946.00
2023-05-15T11:42:52.094Z,934.00
2023-05-15T11:43:52.521Z,951.00
2023-05-15T11:44:52.069Z,977.00
2023-05-15T11:45:52.080Z,960.00
2023-05-15T11:46:52.074Z,963.00
2023-05-15T11:47:52.128Z,963.00
2023-05-15T11:48:52.116Z,954.00
2023-05-15T11:49:52.047Z,964.00
2023-05-15T11:50:52.025Z,980.00
2023-05-15T11:51:52.011Z,963.00
2023-05-15T11:52:52.006Z,995.00
2023-05-15T11:53:52.055Z,964.00
2023-05-15T11:54:52.027Z,978.00
2023-05-15T11:55:51.993Z,982.00
2023-05-15T11:56:52.011Z,992.00
2023-05-15T11:57:52.010Z,1001.00
2023-05-15T11:58:52.076Z,984.00
2023-05-15T11:59:51.984Z,995.00
2023-05-15T12:00:51.973Z,968.00
2023-05-15T12:01:51.999Z,649.00
2023-05-15T12:02:52.164Z,573.00
2023-05-15T12:03:52.253Z,504.00
2023-05-15T12:04:52.196Z,482.00
2023-05-15T12:05:58.886Z,494.00
2023-05-15T12:06:53.119Z,489.00
2023-05-15T12:07:52.188Z,462.00
2023-05-15T12:08:52.120Z,489.00
2023-05-15T12:09:52.126Z,474.00
2023-05-15T12:10:52.133Z,452.00
2023-05-15T12:11:52.120Z,507.00
2023-05-15T12:12:52.125Z,501.00
2023-05-15T12:13:52.064Z,496.00
2023-05-15T12:14:52.054Z,511.00
2023-05-15T12:15:52.134Z,526.00
2023-05-15T12:16:52.140Z,503.00
2023-05-15T12:17:52.091Z,500.00
2023-05-15T12:18:52.206Z,534.00
2023-05-15T12:19:52.044Z,542.00
2023-05-15T12:20:52.109Z,557.00